createdAt,value
2017-09-11T00:00:31.096Z,72.10
2017-09-11T00:02:58.669Z,72.30
2017-09-11T00:05:26.279Z,72.40
2017-09-11T00:07:53.841Z,72.60
2017-09-11T00:10:21.434Z,72.50
2017-09-11T00:12:49.784Z,72.70
2017-09-11T00:15:17.370Z,72.70
2017-09-11T00:17:44.951Z,72.80
2017-09-11T00:20:12.567Z,72.80
2017-09-11T00:22:40.130Z,72.90
2017-09-11T00:25:07.719Z,73.20
2017-09-11T00:27:35.279Z,73.10
2017-09-11T00:30:28.560Z,72.90
2017-09-11T00:32:56.097Z,72.80
2017-09-11T00:35:23.654Z,72.60
2017-09-11T00:37:51.337Z,72.60
2017-09-11T00:40:18.903Z,72.70
2017-09-11T00:42:46.506Z,72.50
2017-09-11T00:45:14.098Z,72.50
2017-09-11T00:47:41.652Z,72.50
2017-09-11T00:50:09.249Z,72.60
2017-09-11T00:52:36.805Z,72.40
2017-09-11T00:55:04.457Z,72.60
2017-09-11T00:57:32.017Z,72.90
2017-09-11T00:59:59.607Z,73.00
2017-09-11T01:02:27.921Z,74.50
2017-09-11T01:04:55.519Z,74.30
2017-09-11T01:07:23.418Z,74.10
2017-09-11T01:09:51.718Z,73.40
2017-09-11T01:12:19.305Z,73.40
2017-09-11T01:14:46.908Z,73.70
2017-09-11T01:17:15.241Z,73.70
2017-09-11T01:19:42.833Z,73.70
2017-09-11T01:22:11.154Z,74.00
2017-09-11T01:24:38.709Z,74.00
2017-09-11T01:27:06.284Z,74.10
2017-09-11T01:29:33.879Z,74.10
2017-09-11T01:32:01.464Z,74.10
2017-09-11T01:34:29.773Z,74.30
2017-09-11T01:36:57.314Z,74.30
2017-09-11T01:39:24.906Z,74.00
2017-09-11T01:41:52.509Z,74.30
2017-09-11T01:44:21.344Z,74.60
2017-09-11T01:46:48.902Z,74.50
2017-09-11T01:49:16.504Z,75.10
2017-09-11T01:51:44.116Z,75.00
2017-09-11T01:54:11.668Z,76.20
2017-09-11T01:56:39.266Z,77.10
2017-09-11T01:59:07.584Z,79.20
2017-09-11T02:01:35.142Z,79.20
2017-09-11T02:04:02.702Z,79.70
2017-09-11T02:06:30.304Z,81.20
2017-09-11T02:08:58.686Z,81.60
2017-09-11T02:11:26.246Z,81.60
2017-09-11T02:13:54.580Z,82.20
2017-09-11T02:16:22.188Z,81.80
2017-09-11T02:18:49.833Z,82.00
2017-09-11T02:21:17.416Z,82.10
2017-09-11T02:23:45.758Z,82.90
2017-09-11T02:26:13.296Z,82.90
2017-09-11T02:28:40.893Z,83.00
2017-09-11T02:31:08.425Z,83.00
2017-09-11T02:33:36.015Z,83.00
2017-09-11T02:36:03.629Z,83.10
2017-09-11T02:38:31.204Z,83.40
2017-09-11T02:40:59.043Z,83.30
2017-09-11T02:43:26.594Z,83.20
2017-09-11T02:45:54.165Z,83.30
2017-09-11T02:48:21.761Z,83.10
2017-09-11T02:50:49.316Z,82.70
2017-09-11T02:53:16.877Z,82.60
2017-09-11T02:55:44.468Z,82.50
2017-09-11T02:58:12.789Z,82.60
2017-09-11T03:00:40.396Z,82.60
2017-09-11T03:03:07.957Z,82.30
2017-09-11T03:05:35.493Z,82.40
2017-09-11T03:08:03.102Z,82.50
2017-09-11T03:10:31.421Z,82.80
2017-09-11T03:12:59.000Z,82.80
2017-09-11T03:15:26.556Z,82.50
2017-09-11T03:17:54.109Z,82.50
2017-09-11T03:20:21.669Z,83.00
2017-09-11T03:22:49.240Z,83.20
2017-09-11T03:25:16.843Z,82.90
2017-09-11T03:27:44.428Z,82.80
2017-09-11T03:30:11.989Z,83.00
2017-09-11T03:32:39.589Z,83.70
2017-09-11T03:35:07.169Z,84.20
2017-09-11T03:37:35.559Z,83.00
2017-09-11T03:40:03.111Z,83.00
2017-09-11T03:42:31.449Z,83.60
2017-09-11T03:44:59.067Z,83.60
2017-09-11T03:47:26.631Z,83.60
2017-09-11T03:49:54.258Z,83.70
2017-09-11T03:52:22.582Z,83.60
2017-09-11T03:54:50.126Z,83.60
2017-09-11T03:57:17.719Z,83.00
2017-09-11T03:59:45.298Z,83.10
2017-09-11T04:02:12.906Z,83.30
2017-09-11T04:04:40.466Z,83.90
2017-09-11T04:07:08.882Z,85.00
2017-09-11T04:09:36.517Z,85.50
2017-09-11T04:12:04.105Z,86.10
2017-09-11T04:14:31.686Z,87.60
2017-09-11T04:16:59.275Z,89.30
2017-09-11T04:19:26.834Z,90.20
2017-09-11T04:21:55.172Z,91.30
2017-09-11T04:24:22.741Z,91.20
2017-09-11T04:26:51.137Z,92.10
2017-09-11T04:29:19.754Z,92.50
2017-09-11T04:31:47.313Z,92.40
2017-09-11T04:34:14.900Z,92.50
2017-09-11T04:36:42.478Z,92.60
2017-09-11T04:39:10.140Z,92.80
2017-09-11T04:41:37.735Z,92.80
2017-09-11T04:44:06.049Z,92.70
2017-09-11T04:46:33.645Z,92.70
2017-09-11T04:49:01.204Z,92.40
2017-09-11T04:51:28.827Z,92.40
2017-09-11T04:53:56.375Z,92.80
2017-09-11T04:56:23.937Z,92.50
2017-09-11T04:58:51.533Z,92.60
2017-09-11T05:01:19.157Z,92.60
2017-09-11T05:03:46.800Z,92.30
2017-09-11T05:06:15.122Z,92.30
2017-09-11T05:08:42.672Z,92.30
2017-09-11T05:11:11.264Z,92.30
2017-09-11T05:13:38.845Z,92.20
2017-09-11T05:16:06.450Z,92.40
2017-09-11T05:18:34.071Z,92.50
2017-09-11T05:21:01.635Z,92.50
2017-09-11T05:23:29.270Z,92.30
2017-09-11T05:25:57.803Z,92.40
2017-09-11T05:28:25.401Z,92.20
2017-09-11T05:30:52.996Z,92.10
2017-09-11T05:33:21.391Z,92.10
2017-09-11T05:35:49.784Z,92.10
2017-09-11T05:38:17.389Z,92.10
2017-09-11T05:40:45.833Z,92.20
2017-09-11T05:43:13.428Z,92.30
2017-09-11T05:45:41.015Z,92.10
2017-09-11T05:48:08.586Z,92.10
2017-09-11T05:50:36.144Z,92.20
2017-09-11T05:53:04.536Z,92.10
2017-09-11T05:55:32.881Z,91.80
2017-09-11T05:58:00.457Z,91.80
2017-09-11T06:00:28.039Z,91.70
2017-09-11T06:02:55.604Z,91.30
2017-09-11T06:05:24.268Z,91.40
2017-09-11T06:07:52.673Z,91.50
2017-09-11T06:10:20.329Z,91.40
2017-09-11T06:12:47.931Z,91.40
2017-09-11T06:15:15.587Z,91.40
2017-09-11T06:17:43.161Z,91.10
2017-09-11T06:20:11.553Z,90.90
2017-09-11T06:22:39.142Z,90.90
2017-09-11T06:25:07.486Z,90.50
2017-09-11T06:27:35.198Z,90.50
2017-09-11T06:30:02.834Z,90.60
2017-09-11T06:32:31.258Z,90.50
2017-09-11T06:34:58.933Z,90.50
2017-09-11T06:37:26.562Z,90.70
2017-09-11T06:39:54.422Z,90.50
2017-09-11T06:42:22.037Z,90.20
2017-09-11T06:44:57.605Z,90.20
2017-09-11T06:47:25.234Z,90.00
2017-09-11T06:49:52.873Z,90.20
2017-09-11T06:52:20.483Z,90.40
2017-09-11T06:54:48.856Z,91.00
2017-09-11T06:57:16.455Z,91.00
2017-09-11T06:59:44.121Z,91.30
2017-09-11T07:02:12.449Z,91.60
2017-09-11T07:04:41.008Z,91.60
2017-09-11T07:07:08.598Z,91.90
2017-09-11T07:09:36.161Z,91.90
2017-09-11T07:12:16.374Z,92.20
2017-09-11T07:14:43.963Z,92.20
2017-09-11T07:17:11.680Z,92.50
2017-09-11T07:19:39.324Z,92.60
2017-09-11T07:22:06.932Z,92.40
2017-09-11T07:24:34.529Z,92.20
2017-09-11T07:27:02.108Z,91.80
2017-09-11T07:29:30.444Z,90.60
2017-09-11T07:31:58.105Z,90.60
2017-09-11T07:34:26.511Z,90.00
2017-09-11T07:36:54.136Z,90.00
2017-09-11T07:39:22.001Z,89.90
2017-09-11T07:41:49.544Z,89.60
2017-09-11T07:44:17.913Z,90.10
2017-09-11T07:46:45.579Z,90.00
2017-09-11T07:49:13.267Z,89.90
2017-09-11T07:51:40.818Z,89.50
2017-09-11T07:54:08.386Z,89.00
2017-09-11T07:56:36.011Z,88.60
2017-09-11T07:59:04.339Z,88.50
2017-09-11T08:01:32.008Z,88.50
2017-09-11T08:03:59.584Z,87.70
2017-09-11T08:06:27.181Z,87.60
2017-09-11T08:08:54.819Z,88.40
2017-09-11T08:11:22.413Z,88.90
2017-09-11T08:13:50.194Z,88.20
2017-09-11T08:16:17.827Z,87.80
2017-09-11T08:18:46.310Z,87.60
2017-09-11T08:21:13.894Z,86.30
2017-09-11T08:23:41.473Z,86.10
2017-09-11T08:26:09.088Z,83.60
2017-09-11T08:28:36.705Z,82.70
2017-09-11T08:31:04.259Z,82.10
2017-09-11T08:33:31.878Z,81.10
2017-09-11T08:35:59.588Z,80.90
2017-09-11T08:38:27.176Z,81.80
2017-09-11T08:40:56.346Z,80.70
2017-09-11T08:43:23.897Z,79.90
2017-09-11T08:45:51.573Z,80.20
2017-09-11T08:48:19.237Z,79.70
2017-09-11T08:50:47.180Z,78.40
2017-09-11T08:53:14.861Z,77.90
2017-09-11T08:55:42.494Z,78.70
2017-09-11T08:58:10.082Z,78.90
2017-09-11T09:00:37.818Z,78.20
2017-09-11T09:03:05.441Z,76.40
2017-09-11T09:05:34.003Z,77.00
2017-09-11T09:08:02.405Z,76.00
2017-09-11T09:10:30.059Z,76.00
2017-09-11T09:12:57.669Z,73.60
2017-09-11T09:15:25.269Z,71.30
2017-09-11T09:17:52.916Z,71.30
2017-09-11T09:20:21.283Z,68.60
2017-09-11T09:22:48.902Z,68.60
2017-09-11T09:25:16.465Z,68.30
2017-09-11T09:27:44.988Z,68.50
2017-09-11T09:30:12.590Z,66.40
2017-09-11T09:32:40.164Z,65.70
2017-09-11T09:35:08.036Z,66.50
2017-09-11T09:37:35.658Z,66.80
2017-09-11T09:40:03.248Z,66.30
2017-09-11T09:42:30.852Z,67.10
2017-09-11T09:44:59.407Z,65.60
2017-09-11T09:47:27.811Z,65.10
2017-09-11T09:49:55.395Z,65.70
2017-09-11T09:52:24.699Z,67.00
2017-09-11T09:54:53.579Z,66.70
2017-09-11T09:57:21.954Z,67.50
2017-09-11T09:59:50.679Z,68.00
2017-09-11T10:02:18.539Z,68.00
2017-09-11T10:04:46.167Z,67.00
2017-09-11T10:07:13.799Z,67.10
2017-09-11T10:09:41.373Z,64.70
2017-09-11T10:12:08.999Z,62.80
2017-09-11T10:14:36.658Z,61.20
2017-09-11T10:17:04.270Z,61.30
2017-09-11T10:19:32.980Z,59.70
2017-09-11T10:22:00.562Z,59.70
2017-09-11T10:24:29.172Z,60.30
2017-09-11T10:26:56.752Z,59.40
2017-09-11T10:29:25.067Z,61.00
2017-09-11T10:31:52.635Z,61.00
2017-09-11T10:34:20.290Z,60.60
2017-09-11T10:36:48.752Z,60.80
2017-09-11T10:39:16.344Z,62.20
2017-09-11T10:41:44.815Z,60.50
2017-09-11T10:44:12.496Z,60.20
2017-09-11T10:46:40.123Z,60.10
2017-09-11T10:49:07.689Z,58.80
2017-09-11T10:51:35.322Z,59.70
2017-09-11T10:54:03.776Z,59.50
2017-09-11T10:56:31.386Z,59.40
2017-09-11T10:58:59.043Z,58.60
2017-09-11T11:01:26.600Z,58.30
2017-09-11T11:03:55.295Z,57.50
2017-09-11T11:06:22.991Z,57.20
2017-09-11T11:08:50.611Z,57.30
2017-09-11T11:11:18.285Z,57.40
2017-09-11T11:13:46.219Z,59.00
2017-09-11T11:16:14.638Z,58.30
2017-09-11T11:18:42.250Z,58.30
2017-09-11T11:21:10.722Z,58.10
2017-09-11T11:23:38.268Z,57.40
2017-09-11T11:26:06.387Z,56.30
2017-09-11T11:28:34.742Z,57.40
2017-09-11T11:31:02.356Z,57.40
2017-09-11T11:33:29.975Z,57.00
2017-09-11T11:35:57.538Z,56.60
2017-09-11T11:38:25.886Z,56.10
2017-09-11T11:40:53.520Z,56.10
2017-09-11T11:43:21.122Z,56.30
2017-09-11T11:45:48.712Z,56.70
2017-09-11T11:48:17.061Z,55.90
2017-09-11T11:50:44.638Z,55.90
2017-09-11T11:53:13.006Z,56.30
2017-09-11T11:55:41.372Z,55.90
2017-09-11T11:58:09.012Z,55.90
2017-09-11T12:00:36.616Z,56.30
2017-09-11T12:03:04.949Z,56.40
2017-09-11T12:05:32.533Z,56.40
2017-09-11T12:08:00.912Z,56.10
2017-09-11T12:10:29.293Z,56.90
2017-09-11T12:12:57.217Z,56.90
2017-09-11T12:15:24.804Z,57.00
2017-09-11T12:17:52.453Z,57.20
2017-09-11T12:20:20.065Z,57.10
2017-09-11T12:22:48.545Z,57.00
2017-09-11T12:25:16.921Z,56.40
2017-09-11T12:27:45.646Z,56.40
2017-09-11T12:30:13.235Z,56.30
2017-09-11T12:32:40.825Z,55.70
2017-09-11T12:35:08.417Z,55.60
2017-09-11T12:37:36.001Z,56.20
2017-09-11T12:40:03.620Z,55.80
2017-09-11T12:42:31.216Z,56.00
2017-09-11T12:44:58.945Z,57.10
2017-09-11T12:47:26.590Z,57.30
2017-09-11T12:49:54.155Z,56.90
2017-09-11T12:52:21.706Z,55.90
2017-09-11T12:54:49.307Z,55.70
2017-09-11T12:57:16.901Z,55.00
2017-09-11T12:59:44.517Z,55.80
2017-09-11T13:02:12.121Z,54.50
2017-09-11T13:04:39.728Z,53.80
2017-09-11T13:07:07.356Z,53.90
2017-09-11T13:09:35.073Z,53.70
2017-09-11T13:12:02.737Z,54.00
2017-09-11T13:14:30.380Z,54.10
2017-09-11T13:16:57.960Z,54.40
2017-09-11T13:19:25.634Z,54.70
2017-09-11T13:21:53.230Z,55.10
2017-09-11T13:24:20.844Z,55.80
2017-09-11T13:26:48.470Z,55.90
2017-09-11T13:29:16.053Z,56.30
2017-09-11T13:31:43.648Z,56.30
2017-09-11T13:34:11.260Z,55.50
2017-09-11T13:36:38.875Z,54.90
2017-09-11T13:39:06.937Z,54.80
2017-09-11T13:41:35.305Z,56.90
2017-09-11T13:44:02.972Z,56.90
2017-09-11T13:46:30.556Z,63.70
2017-09-11T13:48:58.149Z,67.00
2017-09-11T13:51:25.705Z,76.50
2017-09-11T13:53:53.296Z,77.40
2017-09-11T13:56:20.898Z,77.10
2017-09-11T13:58:48.535Z,74.50
2017-09-11T14:01:17.013Z,74.50
2017-09-11T14:03:45.420Z,76.70
2017-09-11T14:06:13.010Z,76.40
2017-09-11T14:08:41.420Z,73.90
2017-09-11T14:11:08.987Z,73.90
2017-09-11T14:13:36.590Z,72.10
2017-09-11T14:16:04.182Z,72.20
2017-09-11T14:18:32.637Z,73.00
2017-09-11T14:21:00.996Z,72.50
2017-09-11T14:23:28.600Z,72.50
2017-09-11T14:25:56.249Z,71.70
2017-09-11T14:28:24.748Z,70.30
2017-09-11T14:30:52.340Z,70.30
2017-09-11T14:33:19.950Z,68.60
2017-09-11T14:35:47.589Z,68.80
2017-09-11T14:38:15.200Z,67.90
2017-09-11T14:40:42.797Z,66.70
2017-09-11T14:43:10.376Z,66.40
2017-09-11T14:45:37.958Z,64.70
2017-09-11T14:48:05.517Z,62.40
2017-09-11T14:50:33.155Z,59.60
2017-09-11T14:53:01.502Z,61.90
2017-09-11T14:55:29.083Z,61.70
2017-09-11T14:57:56.712Z,58.50
2017-09-11T15:00:24.299Z,58.40
2017-09-11T15:02:51.881Z,57.80
2017-09-11T15:05:20.271Z,57.60
2017-09-11T15:07:48.663Z,56.60
2017-09-11T15:10:16.325Z,56.60
2017-09-11T15:12:44.010Z,57.50
2017-09-11T15:15:11.610Z,56.80
2017-09-11T15:17:39.207Z,56.50
2017-09-11T15:20:06.782Z,55.30
2017-09-11T15:22:34.383Z,54.90
2017-09-11T15:25:01.970Z,55.20
2017-09-11T15:27:30.358Z,55.70
2017-09-11T15:29:57.946Z,55.70
2017-09-11T15:32:25.523Z,55.80
2017-09-11T15:34:53.120Z,55.60
2017-09-11T15:37:20.763Z,56.00
2017-09-11T15:39:48.441Z,56.60
2017-09-11T15:42:16.024Z,56.50
2017-09-11T15:44:44.377Z,56.40
2017-09-11T15:47:11.984Z,56.40
2017-09-11T15:49:39.841Z,55.70
2017-09-11T15:52:07.423Z,56.40
2017-09-11T15:54:35.643Z,56.30
2017-09-11T15:57:03.222Z,55.90
2017-09-11T15:59:30.832Z,55.30
2017-09-11T16:01:58.482Z,55.80
2017-09-11T16:04:26.038Z,55.70
2017-09-11T16:06:53.673Z,56.20
2017-09-11T16:09:21.277Z,56.20
2017-09-11T16:11:48.926Z,56.10
2017-09-11T16:14:16.561Z,56.50
2017-09-11T16:16:44.130Z,56.60
2017-09-11T16:19:11.739Z,56.90
2017-09-11T16:21:39.329Z,56.30
2017-09-11T16:24:06.964Z,57.20
2017-09-11T16:26:34.520Z,56.60
2017-09-11T16:29:02.116Z,56.80
2017-09-11T16:31:29.718Z,56.90
2017-09-11T16:33:57.310Z,56.60
2017-09-11T16:36:25.685Z,55.50
2017-09-11T16:38:54.068Z,55.90
2017-09-11T16:41:21.687Z,55.80
2017-09-11T16:43:49.263Z,56.00
2017-09-11T16:46:16.825Z,55.80
2017-09-11T16:48:44.429Z,56.50
2017-09-11T16:51:12.031Z,56.30
2017-09-11T16:53:39.633Z,56.30
2017-09-11T16:56:07.222Z,57.00
2017-09-11T16:58:34.849Z,56.60
2017-09-11T17:01:02.423Z,56.90
2017-09-11T17:03:29.985Z,56.80
2017-09-11T17:05:57.559Z,56.70
2017-09-11T17:08:25.122Z,57.00
2017-09-11T17:10:52.817Z,57.20
2017-09-11T17:13:20.480Z,57.50
2017-09-11T17:15:48.160Z,58.20
2017-09-11T17:18:16.708Z,58.10
2017-09-11T17:20:44.315Z,58.70
2017-09-11T17:23:13.348Z,58.60
2017-09-11T17:25:40.918Z,58.50
2017-09-11T17:28:08.524Z,58.90
2017-09-11T17:30:36.106Z,59.20
2017-09-11T17:33:03.739Z,59.30
2017-09-11T17:35:31.352Z,59.70
2017-09-11T17:37:58.982Z,59.80
2017-09-11T17:40:26.613Z,60.40
2017-09-11T17:42:54.228Z,60.40
2017-09-11T17:45:23.389Z,61.10
2017-09-11T17:47:50.978Z,61.00
2017-09-11T17:50:19.339Z,61.60
2017-09-11T17:52:46.977Z,61.60
2017-09-11T17:55:14.630Z,62.40
2017-09-11T17:57:42.215Z,62.30
2017-09-11T18:00:09.817Z,63.00
2017-09-11T18:02:37.408Z,63.90
2017-09-11T18:05:05.697Z,64.50
2017-09-11T18:07:33.273Z,65.30
2017-09-11T18:10:00.923Z,65.90
2017-09-11T18:12:28.546Z,66.50
2017-09-11T18:14:56.145Z,67.00
2017-09-11T18:17:23.801Z,67.10
2017-09-11T18:19:51.389Z,67.50
2017-09-11T18:22:19.019Z,68.10
2017-09-11T18:24:46.609Z,68.40
2017-09-11T18:27:14.202Z,68.50
2017-09-11T18:29:41.798Z,69.00
2017-09-11T18:32:09.503Z,69.40
2017-09-11T18:34:37.935Z,70.00
2017-09-11T18:37:06.285Z,69.90
2017-09-11T18:39:34.179Z,70.10
2017-09-11T18:42:02.775Z,70.30
2017-09-11T18:44:30.462Z,70.80
2017-09-11T18:46:58.081Z,71.50
2017-09-11T18:49:25.672Z,70.90
2017-09-11T18:51:54.040Z,71.00
2017-09-11T18:54:21.621Z,70.90
2017-09-11T18:56:49.937Z,70.90
2017-09-11T18:59:18.382Z,70.90
2017-09-11T19:01:46.716Z,71.00
2017-09-11T19:04:14.297Z,71.00
2017-09-11T19:06:41.884Z,70.70
2017-09-11T19:09:10.338Z,70.70
2017-09-11T19:11:38.038Z,70.60
2017-09-11T19:14:05.666Z,70.50
2017-09-11T19:16:33.315Z,70.60
2017-09-11T19:19:01.028Z,70.80
2017-09-11T19:21:28.591Z,71.00
2017-09-11T19:23:56.229Z,71.20
2017-09-11T19:26:24.643Z,71.80
2017-09-11T19:28:52.252Z,71.00
2017-09-11T19:31:20.792Z,71.70
2017-09-11T19:33:48.368Z,71.70
2017-09-11T19:36:15.957Z,71.80
2017-09-11T19:38:43.613Z,71.90
2017-09-11T19:41:11.207Z,72.10
2017-09-11T19:43:38.807Z,72.10
2017-09-11T19:46:06.411Z,72.30
2017-09-11T19:48:34.336Z,72.30
2017-09-11T19:51:01.920Z,73.00
2017-09-11T19:53:29.503Z,72.50
2017-09-11T19:55:57.094Z,72.30
2017-09-11T19:58:24.715Z,72.50
2017-09-11T20:00:52.960Z,72.50
2017-09-11T20:03:22.371Z,72.50
2017-09-11T20:05:50.972Z,72.30
2017-09-11T20:08:19.346Z,72.10
2017-09-11T20:10:47.196Z,72.10
2017-09-11T20:13:15.545Z,72.50
2017-09-11T20:15:43.354Z,72.50
2017-09-11T20:18:11.240Z,72.80
2017-09-11T20:20:40.047Z,72.80
2017-09-11T20:23:07.686Z,72.80
2017-09-11T20:25:35.269Z,72.80
2017-09-11T20:28:04.036Z,72.80
2017-09-11T20:30:31.595Z,72.90
2017-09-11T20:32:59.152Z,72.90
2017-09-11T20:35:26.713Z,72.90
2017-09-11T20:37:54.273Z,73.30
2017-09-11T20:40:21.883Z,73.10
2017-09-11T20:42:50.227Z,73.70
2017-09-11T20:45:17.829Z,73.70
2017-09-11T20:47:45.399Z,73.60
2017-09-11T20:50:12.992Z,73.70
2017-09-11T20:52:40.577Z,73.50
2017-09-11T20:55:08.165Z,73.60
2017-09-11T20:57:36.513Z,73.60
2017-09-11T21:00:04.252Z,73.50
2017-09-11T21:02:31.854Z,73.20
2017-09-11T21:05:00.264Z,72.80
2017-09-11T21:07:28.393Z,72.80
2017-09-11T21:09:55.999Z,72.90
2017-09-11T21:12:23.644Z,73.00
2017-09-11T21:14:51.203Z,74.00
2017-09-11T21:17:18.808Z,73.20
2017-09-11T21:19:46.364Z,73.20
2017-09-11T21:22:13.974Z,73.30
2017-09-11T21:24:41.561Z,73.50
2017-09-11T21:27:09.167Z,73.40
2017-09-11T21:29:37.579Z,74.00
2017-09-11T21:32:05.932Z,73.50
2017-09-11T21:34:34.896Z,73.50
2017-09-11T21:37:02.695Z,74.10
2017-09-11T21:39:31.012Z,74.20
2017-09-11T21:41:58.591Z,74.20
2017-09-11T21:44:26.185Z,74.40
2017-09-11T21:46:53.766Z,74.50
2017-09-11T21:49:21.510Z,74.40
2017-09-11T21:51:49.916Z,74.70
2017-09-11T21:54:17.519Z,74.70
2017-09-11T21:56:45.077Z,75.00
2017-09-11T21:59:12.700Z,74.80
2017-09-11T22:01:41.049Z,75.10
2017-09-11T22:04:08.608Z,75.00
2017-09-11T22:06:36.199Z,75.30
2017-09-11T22:09:04.893Z,75.30
2017-09-11T22:11:32.453Z,75.30
2017-09-11T22:14:00.028Z,75.60
2017-09-11T22:16:27.710Z,75.90
2017-09-11T22:18:55.268Z,75.70
2017-09-11T22:21:22.842Z,76.60
2017-09-11T22:23:50.395Z,75.90
2017-09-11T22:26:17.974Z,75.70
2017-09-11T22:28:45.571Z,76.30
2017-09-11T22:31:13.898Z,76.20
2017-09-11T22:33:41.485Z,76.20
2017-09-11T22:36:09.079Z,76.40
2017-09-11T22:38:36.683Z,76.60
2017-09-11T22:41:04.297Z,76.50
2017-09-11T22:43:31.876Z,76.60
2017-09-11T22:45:59.456Z,76.70
2017-09-11T22:48:27.051Z,76.80
2017-09-11T22:50:54.664Z,76.10
2017-09-11T22:53:22.252Z,76.00
2017-09-11T22:55:49.842Z,76.10
2017-09-11T22:58:18.204Z,76.00
2017-09-11T23:00:45.799Z,76.00
2017-09-11T23:03:13.410Z,76.40
2017-09-11T23:05:40.999Z,76.50
2017-09-11T23:08:09.319Z,76.60
2017-09-11T23:10:36.899Z,76.60
2017-09-11T23:13:04.526Z,76.90
2017-09-11T23:15:32.145Z,76.80
2017-09-11T23:18:00.401Z,76.70
2017-09-11T23:20:28.004Z,76.80
2017-09-11T23:22:56.363Z,77.00
2017-09-11T23:25:24.729Z,77.10
2017-09-11T23:27:52.336Z,77.10
2017-09-11T23:30:20.640Z,77.20
2017-09-11T23:32:49.004Z,77.50
2017-09-11T23:35:16.641Z,77.50
2017-09-11T23:37:44.995Z,77.40
2017-09-11T23:40:12.574Z,77.40
2017-09-11T23:42:41.616Z,77.30
2017-09-11T23:45:09.228Z,77.20
2017-09-11T23:47:37.585Z,76.60
2017-09-11T23:50:05.799Z,76.50
2017-09-11T23:52:33.433Z,76.50
2017-09-11T23:55:01.083Z,77.20
2017-09-11T23:57:28.694Z,76.80
2017-09-11T23:59:56.288Z,76.60
